• Join FlightAware (Why Join?)
  • Login
  • US Flag 
05:19AM EST


 

Airport Tracker/Info


-or-


 

Live Flight TrackerFlight Track Log ✈ EJA221 ✈ 16-Jul-2013 ✈ KSJC - KHDN

Flight Track Log - Related Links

Times and Time Zones

All times are in EDT time to prevent confusion due to time zone crossing. See the EJA221 flight status page for this flight to view local times or setup timezone preferences in your user account.

Time Position Orientation Groundspeed Altitude Reporting Facility
EDT Latitude Longitude Course Direction KTS MPH feet Rate Location/Type
08:22PM 37.4000 -121.9667 38° Northeast 201 231 2,600  Level Northern Cal TRACON
08:23PM 37.4333 -121.9333 38° Northeast 239 275 4,800 2,580 Climbing Northern Cal TRACON
08:25PM 37.3353 -121.8931 162° South 230 265 11,400 2,520 Climbing Oakland Center
08:26PM 37.3922 -121.9492 322° Northwest 280 322 13,600 2,040 Climbing Oakland Center
08:27PM 37.4858 -121.9561 357° North 325 374 15,600 1,860 Climbing Oakland Center
08:28PM 37.5919 -121.9661 356° North 375 432 17,400 1,620 Climbing Oakland Center
08:29PM 37.7058 -121.9758 356° North 410 472 19,000 1,740 Climbing Oakland Center
08:30PM 37.8139 -121.9078 26° Northeast 445 512 21,000 1,980 Climbing Oakland Center
08:31PM 37.8725 -121.7361 67° East 447 514 23,100 1,920 Climbing Oakland Center
08:32PM 37.9150 -121.5856 70° East 456 525 25,000 1,740 Climbing Oakland Center
08:33PM 37.9472 -121.4375 75° East 465 535 26,700 1,740 Climbing Oakland Center
08:34PM 37.9775 -121.2731 77° East 479 551 28,600 1,680 Climbing Oakland Center
08:35PM 38.0100 -121.1061 76° East 490 564 30,200 1,980 Climbing Oakland Center
08:36PM 38.0481 -120.9011 77° East 500 575 32,700 2,160 Climbing Oakland Center
08:38PM 38.0800 -120.7314 77° East 499 574 34,700 1,560 Climbing Oakland Center
08:39PM 38.1117 -120.5628 77° East 494 568 36,000 1,260 Climbing Oakland Center
08:40PM 38.1419 -120.3936 77° East 495 570 37,300 960 Climbing Oakland Center
08:41PM 38.1719 -120.2261 77° East 489 563 38,000 840 Climbing Oakland Center
08:42PM 38.2044 -120.0572 76° East 497 572 39,100 1,200 Climbing Oakland Center
08:43PM 38.2347 -119.8856 77° East 499 574 40,500 900 Climbing Oakland Center
08:44PM 38.2636 -119.7169 78° East 492 566 41,000 240 Climbing Oakland Center
08:45PM 38.3003 -119.5128 77° East 493 567 41,000  Level Oakland Center
08:46PM 38.3283 -119.3483 78° East 499 574 41,000  Level Oakland Center
08:47PM 38.3597 -119.1736 77° East 506 582 41,000  Level Oakland Center
08:48PM 38.3883 -119.0019 78° East 501 577 41,000  Level Oakland Center
08:49PM 38.4186 -118.8286 77° East 504 580 41,000  Level Oakland Center
08:50PM 38.4528 -118.6219 78° East 498 573 41,000  Level Oakland Center
08:51PM 38.4808 -118.4536 78° East 491 565 41,000  Level Oakland Center
08:52PM 38.5094 -118.2808 78° East 498 573 41,000  Level Oakland Center
08:53PM 38.5372 -118.1117 78° East 491 565 41,000  Level Oakland Center
08:54PM 38.5633 -117.9508 78° East 494 568 41,000  Level Oakland Center
08:55PM 38.5917 -117.7764 78° East 498 573 41,000  Level Oakland Center
08:56PM 38.6242 -117.5694 79° East 492 566 41,000  Level Oakland Center
08:57PM 38.6386 -117.4669 80° East 491 565 41,000  Level Salt Lake Center
08:58PM 38.6653 -117.2961 79° East 487 560 41,000  Level Salt Lake Center
08:59PM 38.6919 -117.1242 79° East 488 562 41,000  Level Salt Lake Center
09:00PM 38.7183 -116.9514 79° East 492 566 41,000  Level Salt Lake Center
09:01PM 38.7436 -116.7800 79° East 490 564 41,000  Level Salt Lake Center
09:02PM 38.7692 -116.6097 79° East 486 559 41,000  Level Salt Lake Center
09:03PM 38.7950 -116.4361 79° East 492 566 41,000  Level Salt Lake Center
09:04PM 38.8200 -116.2633 79° East 494 568 41,000  Level Salt Lake Center
09:05PM 38.8494 -116.0581 80° East 488 562 41,000  Level Salt Lake Center
09:06PM 38.8742 -115.8856 80° East 492 566 41,000  Level Salt Lake Center
09:07PM 38.8983 -115.7131 80° East 492 566 41,000  Level Salt Lake Center
09:08PM 38.9225 -115.5408 80° East 490 564 41,000  Level Salt Lake Center
09:09PM 38.9489 -115.3542 80° East 494 568 41,000  Level Salt Lake Center
09:10PM 38.9719 -115.1825 80° East 490 564 41,000  Level Salt Lake Center
09:11PM 38.9953 -115.0136 80° East 483 556 41,000  Level Salt Lake Center
09:12PM 39.0175 -114.8442 80° East 482 555 41,000  Level Salt Lake Center
09:13PM 39.0406 -114.6731 80° East 484 557 41,000  Level Salt Lake Center
09:14PM 39.0631 -114.5019 80° East 485 558 41,000  Level Salt Lake Center
09:15PM 39.0892 -114.2975 81° East 484 557 41,000  Level Salt Lake Center
09:16PM 39.1106 -114.1258 81° East 485 558 41,000  Level Salt Lake Center
09:17PM 39.1325 -113.9511 81° East 491 565 41,000  Level Salt Lake Center
09:18PM 39.1536 -113.7786 81° East 488 562 41,000  Level Salt Lake Center
09:19PM 39.1747 -113.6078 81° East 485 558 41,000  Level Salt Lake Center
09:20PM 39.1958 -113.4339 81° East 489 563 41,000  Level Salt Lake Center
09:21PM 39.2156 -113.2603 82° East 489 563 41,000  Level Salt Lake Center
09:22PM 39.2364 -113.0850 81° East 493 567 41,000  Level Salt Lake Center
09:23PM 39.2600 -112.8778 82° East 488 562 41,000  Level Salt Lake Center
09:24PM 39.2794 -112.7053 82° East 487 560 41,000 60 Level Salt Lake Center
09:25PM 39.2997 -112.5314 81° East 482 555 41,200 540 Climbing Salt Lake Center
09:26PM 39.3289 -112.3636 77° East 483 556 42,200 840 Climbing Salt Lake Center
09:27PM 39.3603 -112.1969 76° East 482 555 43,000 360 Climbing Salt Lake Center
09:28PM 39.3906 -112.0336 76° East 472 543 43,000  Level Salt Lake Center
09:29PM 39.4200 -111.8694 77° East 472 543 43,000  Level Salt Lake Center
09:31PM 39.4500 -111.7053 77° East 472 543 43,000  Level Salt Lake Center
09:32PM 39.4783 -111.5064 79° East 471 542 43,000  Level Salt Lake Center
09:33PM 39.4978 -111.3400 81° East 471 542 43,000  Level Salt Lake Center
09:34PM 39.5119 -111.1819 83° East 476 548 43,000  Level Salt Lake Center
09:35PM 39.5178 -111.0006 88° East 453 521 43,000  Level Salt Lake Center
09:36PM 39.5211 -110.8486 88° East 442 509 43,000 -240 Level Salt Lake Center
09:37PM 39.5478 -110.6753 79° East 441 507 42,600 -900 Descending Salt Lake Center
09:38PM 39.5781 -110.5261 75° East 447 514 41,200 -1,500 Descending Salt Lake Center
09:39PM 39.6144 -110.3497 75° East 452 520 39,500 -1,620 Descending Salt Lake Center
09:40PM 39.6447 -110.1906 76° East 470 541 37,900 -1,560 Descending Salt Lake Center
09:41PM 39.6769 -110.0308 75° East 477 549 36,400 -1,260 Descending Salt Lake Center
09:42PM 39.7133 -109.8439 76° East 479 551 35,300 -1,380 Descending Salt Lake Center
09:43PM 39.7428 -109.6806 77° East 481 554 33,700 -1,860 Descending Denver Center
09:44PM 39.7806 -109.4936 75° East 483 556 31,500 -2,040 Descending Salt Lake Center
09:45PM 39.8106 -109.3325 76° East 476 548 29,600 -1,800 Descending Denver Center
09:46PM 39.8417 -109.1681 76° East 485 558 27,900 -1,620 Descending Denver Center
09:47PM 39.8789 -108.9750 76° East 489 563 26,300 -1,440 Descending Denver Center
09:48PM 39.9089 -108.8100 77° East 484 557 25,000 -1,440 Descending Denver Center
09:49PM 39.9431 -108.6228 77° East 476 548 23,400 -1,440 Descending Salt Lake Center
09:50PM 39.9700 -108.4628 78° East 470 541 22,000 -1,500 Descending Salt Lake Center
09:51PM 39.9983 -108.3053 77° East 466 536 20,400 -2,100 Descending Denver Center
09:52PM 40.0294 -108.1400 76° East 423 487 17,700 -2,160 Descending Denver Center
09:53PM 40.0536 -108.0042 77° East 402 463 16,000 -960 Descending Denver Center
09:54PM 40.1111 -107.8683 61° Northeast 394 453 15,800 -840 Descending Denver Center
09:55PM 40.1894 -107.7769 42° Northeast 394 453 14,400 -1,440 Descending Denver Center
09:56PM 40.2758 -107.6708 43° Northeast 385 443 12,900 -780 Descending Denver Center
09:57PM 40.3369 -107.5953 43° Northeast 312 359 12,900  Level Denver Center
09:58PM 40.3975 -107.5225 42° Northeast 266 306 13,000 -540 Climbing Denver Center
09:59PM 40.4472 -107.4597 44° Northeast 260 299 11,800 -1,620 Descending Denver Center
10:00PM 40.5031 -107.3914 43° Northeast 259 298 9,700 -2,040 Descending Denver Center